createdAt,value
2023-03-08T00:02:24.021Z,98.80
2023-03-08T00:04:53.857Z,99.00
2023-03-08T00:07:20.695Z,99.10
2023-03-08T00:09:47.365Z,99.40
2023-03-08T00:12:14.147Z,99.50
2023-03-08T00:14:43.298Z,99.50
2023-03-08T00:17:09.996Z,99.50
2023-03-08T00:19:36.799Z,99.40
2023-03-08T00:22:03.425Z,99.50
2023-03-08T00:24:32.438Z,99.50
2023-03-08T00:27:01.608Z,99.40
2023-03-08T00:29:28.259Z,99.60
2023-03-08T00:31:54.889Z,99.90
2023-03-08T00:34:21.558Z,99.90
2023-03-08T00:36:50.462Z,99.90
2023-03-08T00:39:17.168Z,99.90
2023-03-08T00:41:43.861Z,99.90
2023-03-08T00:44:10.450Z,99.90
2023-03-08T00:46:39.361Z,99.90
2023-03-08T00:49:08.188Z,99.90
2023-03-08T00:51:34.861Z,99.90
2023-03-08T00:54:01.517Z,99.90
2023-03-08T00:56:28.182Z,99.90
2023-03-08T00:58:54.918Z,99.90
2023-03-08T01:01:21.792Z,99.90
2023-03-08T01:03:48.605Z,99.90
2023-03-08T01:06:19.229Z,99.90
2023-03-08T01:08:48.410Z,99.90
2023-03-08T01:11:26.777Z,99.90
2023-03-08T01:13:54.405Z,99.90
2023-03-08T01:16:25.678Z,99.90
2023-03-08T01:18:52.431Z,99.90
2023-03-08T01:21:19.212Z,99.90
2023-03-08T01:23:46.090Z,99.90
2023-03-08T01:26:21.185Z,99.80
2023-03-08T01:28:48.656Z,99.80
2023-03-08T01:31:18.091Z,99.80
2023-03-08T01:33:45.437Z,99.80
2023-03-08T01:36:16.796Z,99.80
2023-03-08T01:38:44.257Z,99.90
2023-03-08T01:41:17.941Z,99.90
2023-03-08T01:43:44.852Z,99.90
2023-03-08T01:46:14.527Z,99.90
2023-03-08T01:48:47.616Z,99.90
2023-03-08T01:51:19.026Z,99.80
2023-03-08T01:53:46.199Z,99.90
2023-03-08T01:56:15.113Z,99.90
2023-03-08T01:58:45.705Z,99.90
2023-03-08T02:01:12.498Z,99.90
2023-03-08T02:03:39.267Z,99.90
2023-03-08T02:06:07.057Z,99.90
2023-03-08T02:08:34.330Z,99.90
2023-03-08T02:11:01.803Z,99.90
2023-03-08T02:13:28.671Z,99.90
2023-03-08T02:15:58.318Z,99.90
2023-03-08T02:18:25.033Z,99.90
2023-03-08T02:20:53.900Z,99.90
2023-03-08T02:23:23.777Z,99.90
2023-03-08T02:26:05.385Z,99.90
2023-03-08T02:28:32.654Z,99.90
2023-03-08T02:31:02.292Z,99.90
2023-03-08T02:33:30.504Z,99.90
2023-03-08T02:36:00.706Z,99.90
2023-03-08T02:38:27.429Z,99.90
2023-03-08T02:40:54.044Z,99.90
2023-03-08T02:43:23.625Z,99.90
2023-03-08T02:45:52.629Z,99.90
2023-03-08T02:48:19.761Z,99.90
2023-03-08T02:50:46.465Z,99.90
2023-03-08T02:53:13.245Z,99.90
2023-03-08T02:55:42.787Z,99.90
2023-03-08T02:58:10.735Z,99.90
2023-03-08T03:00:38.556Z,99.90
2023-03-08T03:03:08.051Z,99.90
2023-03-08T03:05:37.205Z,99.90
2023-03-08T03:08:06.082Z,99.90
2023-03-08T03:10:36.117Z,99.90
2023-03-08T03:13:03.179Z,99.90
2023-03-08T03:15:33.193Z,99.90
2023-03-08T03:18:01.055Z,99.90
2023-03-08T03:20:30.082Z,99.90
2023-03-08T03:22:58.024Z,99.90
2023-03-08T03:25:26.922Z,99.90
2023-03-08T03:27:54.977Z,99.90
2023-03-08T03:30:21.936Z,99.90
2023-03-08T03:32:48.586Z,99.90
2023-03-08T03:35:15.330Z,99.90
2023-03-08T03:37:44.197Z,99.90
2023-03-08T03:40:12.247Z,99.90
2023-03-08T03:42:38.968Z,99.90
2023-03-08T03:45:08.822Z,99.90
2023-03-08T03:47:35.601Z,99.90
2023-03-08T03:50:02.249Z,99.90
2023-03-08T03:52:28.936Z,99.90
2023-03-08T03:55:00.355Z,99.90
2023-03-08T03:57:27.096Z,99.90
2023-03-08T03:59:53.715Z,99.90
2023-03-08T04:02:22.580Z,99.90
2023-03-08T04:04:54.002Z,99.90
2023-03-08T04:07:20.661Z,99.90
2023-03-08T04:09:49.763Z,99.90
2023-03-08T04:12:16.559Z,99.90
2023-03-08T04:14:43.400Z,99.90
2023-03-08T04:17:13.051Z,99.90
2023-03-08T04:19:40.103Z,99.90
2023-03-08T04:22:06.739Z,99.90
2023-03-08T04:24:33.505Z,99.90
2023-03-08T04:27:00.138Z,99.90
2023-03-08T04:29:26.817Z,99.90
2023-03-08T04:31:55.631Z,99.90
2023-03-08T04:34:24.794Z,99.90
2023-03-08T04:36:51.491Z,99.90
2023-03-08T04:39:18.125Z,99.90
2023-03-08T04:41:44.819Z,99.90
2023-03-08T04:44:11.573Z,99.90
2023-03-08T04:46:38.477Z,99.90
2023-03-08T04:49:05.175Z,99.90
2023-03-08T04:51:31.937Z,99.90
2023-03-08T04:54:00.941Z,99.90
2023-03-08T04:56:29.799Z,99.90
2023-03-08T04:58:56.428Z,99.90
2023-03-08T05:01:23.634Z,99.90
2023-03-08T05:03:51.320Z,99.90
2023-03-08T05:06:19.199Z,99.90
2023-03-08T05:08:46.406Z,99.90
2023-03-08T05:11:22.986Z,99.90
2023-03-08T05:13:50.069Z,99.90
2023-03-08T05:16:16.785Z,99.90
2023-03-08T05:18:43.668Z,99.90
2023-03-08T05:21:13.821Z,99.90
2023-03-08T05:23:42.749Z,99.90
2023-03-08T05:26:15.407Z,99.90
2023-03-08T05:28:44.910Z,99.90
2023-03-08T05:31:20.423Z,99.90
2023-03-08T05:33:50.898Z,99.90
2023-03-08T05:36:20.452Z,99.90
2023-03-08T05:38:53.687Z,99.90
2023-03-08T05:41:21.007Z,99.90
2023-03-08T05:43:48.015Z,99.90
2023-03-08T05:46:19.491Z,99.90
2023-03-08T05:48:46.523Z,99.90
2023-03-08T05:51:16.083Z,99.90
2023-03-08T05:53:45.860Z,99.90
2023-03-08T05:56:15.402Z,99.90
2023-03-08T05:58:47.732Z,99.90
2023-03-08T06:01:19.569Z,99.90
2023-03-08T06:03:47.949Z,99.90
2023-03-08T06:06:18.256Z,99.90
2023-03-08T06:08:45.445Z,99.90
2023-03-08T06:11:12.572Z,99.90
2023-03-08T06:13:41.914Z,99.90
2023-03-08T06:16:10.262Z,99.90
2023-03-08T06:18:40.925Z,99.90
2023-03-08T06:21:17.556Z,99.90
2023-03-08T06:23:47.973Z,99.90
2023-03-08T06:26:15.583Z,99.90
2023-03-08T06:28:44.880Z,99.90
2023-03-08T06:31:16.977Z,99.90
2023-03-08T06:33:43.938Z,99.90
2023-03-08T06:36:15.967Z,99.90
2023-03-08T06:38:43.219Z,99.90
2023-03-08T06:41:15.989Z,99.90
2023-03-08T06:43:46.024Z,99.90
2023-03-08T06:46:17.126Z,99.90
2023-03-08T06:48:44.721Z,99.90
2023-03-08T06:51:11.422Z,99.90
2023-03-08T06:53:38.300Z,99.90
2023-03-08T06:56:07.034Z,99.90
2023-03-08T06:58:37.679Z,99.90
2023-03-08T07:01:05.600Z,99.90
2023-03-08T07:03:33.615Z,99.90
2023-03-08T07:06:01.807Z,99.90
2023-03-08T07:08:28.481Z,99.90
2023-03-08T07:10:55.776Z,99.90
2023-03-08T07:13:23.856Z,99.90
2023-03-08T07:15:55.800Z,99.90
2023-03-08T07:18:24.770Z,99.90
2023-03-08T07:20:58.159Z,99.90
2023-03-08T07:23:25.461Z,99.90
2023-03-08T07:25:52.332Z,99.90
2023-03-08T07:28:21.333Z,99.90
2023-03-08T07:30:52.291Z,99.90
2023-03-08T07:33:22.883Z,99.90
2023-03-08T07:35:49.900Z,99.90
2023-03-08T07:38:17.134Z,99.90
2023-03-08T07:40:55.798Z,99.90
2023-03-08T07:43:23.003Z,99.90
2023-03-08T07:45:49.702Z,99.90
2023-03-08T07:48:16.680Z,99.90
2023-03-08T07:50:43.392Z,99.90
2023-03-08T07:53:12.382Z,99.90
2023-03-08T07:55:39.194Z,99.90
2023-03-08T07:58:06.070Z,99.90
2023-03-08T08:00:32.912Z,99.90
2023-03-08T08:02:59.772Z,99.90
2023-03-08T08:05:29.148Z,99.90
2023-03-08T08:07:58.607Z,99.90
2023-03-08T08:10:25.359Z,99.90
2023-03-08T08:12:52.214Z,99.90
2023-03-08T08:15:23.400Z,99.90
2023-03-08T08:17:52.849Z,99.90
2023-03-08T08:20:19.628Z,99.90
2023-03-08T08:22:46.524Z,99.90
2023-03-08T08:25:13.344Z,99.90
2023-03-08T08:27:40.242Z,99.90
2023-03-08T08:30:07.703Z,99.90
2023-03-08T08:32:35.381Z,99.90
2023-03-08T08:35:02.326Z,99.90
2023-03-08T08:37:30.620Z,99.90
2023-03-08T08:39:59.959Z,99.90
2023-03-08T08:42:27.035Z,99.90
2023-03-08T08:44:54.145Z,99.90
2023-03-08T08:47:21.029Z,99.90
2023-03-08T08:49:47.714Z,99.90
2023-03-08T08:52:16.810Z,99.90
2023-03-08T08:54:43.614Z,99.90
2023-03-08T08:57:10.334Z,99.90
2023-03-08T08:59:39.254Z,99.90
2023-03-08T09:02:06.269Z,99.90
2023-03-08T09:04:33.159Z,99.90
2023-03-08T09:07:00.086Z,99.90
2023-03-08T09:09:29.351Z,99.90
2023-03-08T09:11:56.335Z,99.90
2023-03-08T09:14:24.139Z,99.90
2023-03-08T09:16:52.682Z,99.90
2023-03-08T09:19:19.997Z,99.90
2023-03-08T09:21:47.026Z,99.90
2023-03-08T09:24:14.084Z,99.90
2023-03-08T09:26:43.523Z,99.90
2023-03-08T09:29:14.029Z,99.90
2023-03-08T09:31:42.327Z,99.90
2023-03-08T09:34:19.555Z,99.90
2023-03-08T09:36:48.553Z,99.90
2023-03-08T09:39:17.460Z,99.90
2023-03-08T09:41:59.318Z,99.90
2023-03-08T09:44:34.817Z,99.90
2023-03-08T09:47:21.583Z,99.90
2023-03-08T09:49:53.775Z,99.90
2023-03-08T09:52:33.387Z,99.90
2023-03-08T09:55:03.176Z,99.90
2023-03-08T09:57:37.112Z,99.90
2023-03-08T10:00:12.125Z,99.90
2023-03-08T10:03:14.236Z,99.90
2023-03-08T10:05:48.384Z,99.90
2023-03-08T10:08:36.247Z,99.90
2023-03-08T10:11:07.528Z,99.90
2023-03-08T10:13:47.463Z,99.90
2023-03-08T10:16:23.737Z,99.90
2023-03-08T10:18:52.529Z,99.90
2023-03-08T10:21:23.091Z,99.90
2023-03-08T10:24:09.939Z,99.90
2023-03-08T10:26:39.694Z,99.90
2023-03-08T10:29:06.426Z,99.90
2023-03-08T10:31:33.734Z,99.90
2023-03-08T10:34:36.505Z,99.90
2023-03-08T10:37:06.718Z,99.90
2023-03-08T10:39:37.088Z,99.90
2023-03-08T10:42:16.935Z,99.90
2023-03-08T10:44:55.062Z,99.90
2023-03-08T10:47:33.849Z,99.90
2023-03-08T10:50:06.792Z,99.90
2023-03-08T10:52:36.199Z,99.90
2023-03-08T10:55:26.102Z,99.90
2023-03-08T10:57:58.217Z,99.90
2023-03-08T11:00:40.653Z,99.90
2023-03-08T11:03:10.294Z,99.90
2023-03-08T11:05:37.631Z,99.90
2023-03-08T11:08:15.296Z,99.90
2023-03-08T11:10:44.591Z,99.90
2023-03-08T11:13:29.201Z,99.90
2023-03-08T11:15:58.916Z,99.90
2023-03-08T11:18:44.477Z,99.90
2023-03-08T11:21:19.465Z,99.90
2023-03-08T11:24:05.119Z,99.90
2023-03-08T11:26:34.748Z,99.90
2023-03-08T11:29:12.727Z,99.90
2023-03-08T11:31:50.098Z,99.90
2023-03-08T11:34:37.669Z,99.90
2023-03-08T11:37:43.096Z,99.90
2023-03-08T11:40:29.675Z,99.90
2023-03-08T11:43:06.762Z,99.90
2023-03-08T11:46:03.987Z,99.90
2023-03-08T11:49:10.715Z,99.90
2023-03-08T11:51:52.795Z,99.90
2023-03-08T11:54:41.456Z,99.90
2023-03-08T11:57:14.262Z,99.90
2023-03-08T12:00:00.886Z,99.90
2023-03-08T12:02:34.563Z,99.90
2023-03-08T12:05:17.025Z,99.90
2023-03-08T12:07:55.657Z,99.90
2023-03-08T12:10:26.864Z,99.90
2023-03-08T12:12:58.986Z,99.90
2023-03-08T12:15:29.038Z,99.90
2023-03-08T12:18:42.262Z,99.90
2023-03-08T12:21:16.772Z,99.90
2023-03-08T12:24:06.921Z,99.90
2023-03-08T12:26:48.736Z,99.90
2023-03-08T12:29:45.745Z,99.90
2023-03-08T12:32:17.284Z,99.90
2023-03-08T12:34:48.954Z,99.90
2023-03-08T12:37:25.639Z,99.90
2023-03-08T12:40:27.989Z,99.90
2023-03-08T12:43:07.775Z,99.90
2023-03-08T12:45:35.277Z,99.90
2023-03-08T12:48:05.013Z,99.90
2023-03-08T12:50:55.441Z,99.90
2023-03-08T12:53:40.775Z,99.90
2023-03-08T12:56:13.755Z,99.90
2023-03-08T12:58:56.463Z,99.90
2023-03-08T13:01:42.797Z,99.90
2023-03-08T13:04:43.277Z,99.90
2023-03-08T13:07:22.207Z,99.90
2023-03-08T13:10:18.379Z,99.90
2023-03-08T13:13:31.742Z,99.90
2023-03-08T13:16:32.777Z,99.90
2023-03-08T13:19:15.181Z,99.90
2023-03-08T13:21:59.146Z,99.90
2023-03-08T13:24:49.117Z,99.90
2023-03-08T13:27:21.795Z,99.90
2023-03-08T13:29:48.808Z,99.90
2023-03-08T13:32:21.248Z,99.90
2023-03-08T13:35:02.684Z,99.90
2023-03-08T13:37:34.199Z,99.90
2023-03-08T13:40:01.048Z,99.90
2023-03-08T13:42:29.167Z,99.90
2023-03-08T13:45:12.247Z,99.90
2023-03-08T13:47:39.797Z,99.90
2023-03-08T13:50:06.952Z,99.90
2023-03-08T13:52:36.966Z,99.90
2023-03-08T13:55:08.819Z,99.90
2023-03-08T13:57:38.211Z,99.90
2023-03-08T14:00:25.082Z,99.90
2023-03-08T14:02:52.452Z,99.90
2023-03-08T14:05:27.752Z,99.90
2023-03-08T14:08:03.342Z,99.90
2023-03-08T14:10:58.050Z,99.90
2023-03-08T14:13:36.559Z,99.90
2023-03-08T14:16:06.706Z,99.90
2023-03-08T14:18:43.581Z,99.90
2023-03-08T14:21:17.953Z,99.90
2023-03-08T14:24:09.868Z,99.90
2023-03-08T14:26:40.979Z,99.90
2023-03-08T14:29:20.046Z,99.90
2023-03-08T14:31:56.405Z,99.90
2023-03-08T14:34:26.795Z,99.90
2023-03-08T14:37:00.512Z,99.90
2023-03-08T14:39:29.741Z,99.90
2023-03-08T14:41:56.973Z,99.90
2023-03-08T14:44:28.253Z,99.90
2023-03-08T14:47:01.132Z,99.90
2023-03-08T14:49:31.603Z,99.90
2023-03-08T14:51:59.262Z,99.90
2023-03-08T14:54:37.287Z,99.90
2023-03-08T14:57:31.137Z,99.90
2023-03-08T15:00:14.190Z,99.90
2023-03-08T15:02:42.253Z,99.90
2023-03-08T15:05:28.862Z,99.90
2023-03-08T15:07:59.883Z,99.90
2023-03-08T15:10:37.312Z,99.90
2023-03-08T15:13:11.723Z,99.90
2023-03-08T15:15:40.605Z,99.90
2023-03-08T15:18:07.368Z,99.90
2023-03-08T15:20:34.278Z,99.90
2023-03-08T15:23:05.289Z,99.90
2023-03-08T15:25:36.520Z,99.90
2023-03-08T15:28:04.885Z,99.90
2023-03-08T15:30:32.537Z,99.90
2023-03-08T15:33:01.354Z,99.90
2023-03-08T15:35:28.066Z,99.90
2023-03-08T15:37:57.338Z,99.90
2023-03-08T15:40:27.523Z,99.90
2023-03-08T15:42:54.717Z,99.90
2023-03-08T15:45:21.659Z,99.90
2023-03-08T15:48:04.802Z,99.90
2023-03-08T15:50:32.835Z,99.90
2023-03-08T15:53:00.353Z,99.90
2023-03-08T15:55:28.741Z,99.90
2023-03-08T15:57:55.558Z,99.90
2023-03-08T16:00:23.397Z,99.90
2023-03-08T16:02:51.909Z,99.90
2023-03-08T16:05:19.866Z,99.90
2023-03-08T16:07:46.802Z,99.90
2023-03-08T16:10:18.774Z,99.90
2023-03-08T16:12:45.422Z,99.90
2023-03-08T16:15:12.424Z,99.90
2023-03-08T16:17:41.626Z,99.90
2023-03-08T16:20:11.271Z,99.90
2023-03-08T16:22:40.223Z,99.90
2023-03-08T16:25:09.578Z,99.90
2023-03-08T16:27:38.285Z,99.90
2023-03-08T16:30:09.095Z,99.90
2023-03-08T16:32:38.154Z,99.90
2023-03-08T16:35:07.678Z,99.90
2023-03-08T16:37:34.368Z,99.90
2023-03-08T16:40:05.559Z,99.90
2023-03-08T16:42:32.681Z,99.90
2023-03-08T16:44:59.363Z,99.90
2023-03-08T16:47:26.808Z,99.90
2023-03-08T16:49:53.679Z,99.90
2023-03-08T16:52:22.736Z,99.90
2023-03-08T16:54:54.054Z,99.90
2023-03-08T16:57:23.218Z,99.90
2023-03-08T16:59:50.042Z,99.90
2023-03-08T17:02:19.605Z,99.90
2023-03-08T17:04:47.527Z,99.90
2023-03-08T17:07:16.588Z,99.90
2023-03-08T17:09:43.456Z,99.90
2023-03-08T17:12:10.315Z,99.90
2023-03-08T17:14:37.464Z,99.90
2023-03-08T17:17:07.125Z,99.90
2023-03-08T17:19:35.999Z,99.90
2023-03-08T17:22:02.701Z,99.90
2023-03-08T17:24:32.410Z,99.90
2023-03-08T17:27:01.913Z,99.90
2023-03-08T17:29:28.657Z,99.90
2023-03-08T17:31:55.487Z,99.90
2023-03-08T17:34:23.180Z,99.90
2023-03-08T17:36:53.721Z,99.90
2023-03-08T17:39:20.476Z,99.90
2023-03-08T17:41:47.555Z,99.90
2023-03-08T17:44:14.716Z,99.90
2023-03-08T17:46:41.591Z,99.90
2023-03-08T17:49:08.433Z,99.90
2023-03-08T17:51:35.148Z,99.90
2023-03-08T17:54:03.086Z,99.90
2023-03-08T17:56:34.462Z,99.90
2023-03-08T17:59:01.737Z,99.90
2023-03-08T18:01:30.675Z,99.90
2023-03-08T18:03:58.406Z,99.90
2023-03-08T18:06:33.704Z,99.90
2023-03-08T18:09:03.192Z,99.90
2023-03-08T18:11:30.135Z,99.90
2023-03-08T18:13:59.127Z,99.90
2023-03-08T18:16:25.915Z,99.90
2023-03-08T18:18:52.737Z,99.90
2023-03-08T18:21:20.746Z,99.90
2023-03-08T18:23:48.013Z,99.90
2023-03-08T18:26:16.856Z,99.90
2023-03-08T18:28:43.670Z,99.90
2023-03-08T18:31:13.515Z,99.90
2023-03-08T18:33:40.366Z,99.90
2023-03-08T18:36:09.518Z,99.90
2023-03-08T18:38:36.450Z,99.90
2023-03-08T18:41:16.960Z,99.90
2023-03-08T18:43:44.119Z,99.90
2023-03-08T18:46:13.187Z,99.90
2023-03-08T18:48:41.138Z,99.90
2023-03-08T18:51:10.383Z,99.90
2023-03-08T18:53:39.430Z,99.90
2023-03-08T18:56:09.174Z,99.90
2023-03-08T18:58:35.941Z,99.90
2023-03-08T19:01:02.881Z,99.90
2023-03-08T19:03:30.705Z,99.90
2023-03-08T19:06:05.573Z,99.90
2023-03-08T19:08:35.786Z,99.90
2023-03-08T19:11:23.346Z,99.90
2023-03-08T19:13:50.745Z,99.90
2023-03-08T19:16:31.613Z,99.90
2023-03-08T19:19:01.381Z,99.90
2023-03-08T19:21:33.962Z,99.90
2023-03-08T19:24:03.905Z,99.90
2023-03-08T19:26:36.492Z,99.90
2023-03-08T19:29:13.840Z,99.90
2023-03-08T19:31:54.111Z,99.90
2023-03-08T19:34:23.228Z,99.90
2023-03-08T19:36:50.254Z,99.90
2023-03-08T19:39:20.088Z,99.90
2023-03-08T19:41:58.016Z,99.90
2023-03-08T19:44:25.381Z,99.90
2023-03-08T19:46:55.416Z,99.90
2023-03-08T19:49:24.932Z,99.90
2023-03-08T19:51:54.581Z,99.90
2023-03-08T19:54:24.858Z,99.90
2023-03-08T19:56:52.264Z,99.90
2023-03-08T19:59:19.231Z,99.90
2023-03-08T20:01:48.679Z,99.90
2023-03-08T20:04:20.547Z,99.90
2023-03-08T20:06:50.853Z,99.90
2023-03-08T20:09:23.968Z,99.90
2023-03-08T20:11:57.335Z,99.90
2023-03-08T20:14:27.293Z,99.90
2023-03-08T20:16:55.100Z,99.90
2023-03-08T20:19:24.843Z,99.90
2023-03-08T20:21:51.647Z,99.90
2023-03-08T20:24:18.979Z,99.90
2023-03-08T20:26:46.163Z,99.90
2023-03-08T20:29:13.306Z,99.90
2023-03-08T20:31:40.092Z,99.90
2023-03-08T20:34:09.275Z,99.90
2023-03-08T20:36:37.305Z,99.90
2023-03-08T20:39:04.554Z,99.90
2023-03-08T20:41:31.468Z,99.90
2023-03-08T20:43:58.240Z,99.90
2023-03-08T20:46:31.114Z,99.90
2023-03-08T20:48:58.053Z,99.90
2023-03-08T20:51:25.107Z,99.90
2023-03-08T20:53:54.441Z,99.90
2023-03-08T20:56:23.059Z,99.90
2023-03-08T20:58:50.211Z,99.90
2023-03-08T21:01:23.012Z,99.90
2023-03-08T21:03:49.912Z,99.90
2023-03-08T21:06:18.864Z,99.90
2023-03-08T21:08:48.760Z,99.90
2023-03-08T21:11:19.281Z,99.90
2023-03-08T21:13:48.334Z,99.90
2023-03-08T21:16:16.747Z,99.90
2023-03-08T21:18:46.047Z,99.90
2023-03-08T21:21:21.801Z,99.90
2023-03-08T21:23:50.251Z,99.90
2023-03-08T21:26:21.156Z,99.90
2023-03-08T21:28:47.953Z,99.90
2023-03-08T21:31:15.177Z,99.90
2023-03-08T21:33:41.977Z,99.90
2023-03-08T21:36:08.957Z,99.90
2023-03-08T21:38:35.709Z,99.90
2023-03-08T21:41:02.681Z,99.90
2023-03-08T21:43:31.765Z,99.90
2023-03-08T21:46:00.750Z,99.90
2023-03-08T21:48:27.452Z,99.90
2023-03-08T21:50:56.854Z,99.90
2023-03-08T21:53:23.592Z,99.90
2023-03-08T21:55:53.231Z,99.90
2023-03-08T21:58:19.960Z,99.90
2023-03-08T22:00:48.737Z,99.90
2023-03-08T22:03:15.892Z,99.90
2023-03-08T22:05:42.602Z,99.90
2023-03-08T22:08:09.470Z,99.90
2023-03-08T22:10:36.278Z,99.90
2023-03-08T22:13:05.704Z,99.90
2023-03-08T22:15:32.397Z,99.90
2023-03-08T22:18:01.544Z,99.90
2023-03-08T22:20:28.401Z,99.90
2023-03-08T22:22:55.982Z,99.90
2023-03-08T22:25:24.865Z,99.90
2023-03-08T22:27:51.573Z,99.90
2023-03-08T22:30:21.455Z,99.90
2023-03-08T22:32:48.126Z,99.90
2023-03-08T22:35:17.179Z,99.90
2023-03-08T22:37:44.353Z,99.90
2023-03-08T22:40:13.018Z,99.90
2023-03-08T22:42:42.868Z,99.90
2023-03-08T22:45:10.103Z,99.90
2023-03-08T22:47:39.334Z,99.90
2023-03-08T22:50:06.718Z,99.90
2023-03-08T22:52:36.569Z,99.90
2023-03-08T22:55:03.949Z,99.90
2023-03-08T22:57:36.786Z,99.90
2023-03-08T23:00:14.101Z,99.90
2023-03-08T23:02:44.896Z,99.90
2023-03-08T23:05:14.341Z,99.90
2023-03-08T23:07:41.206Z,99.90
2023-03-08T23:10:09.197Z,99.90
2023-03-08T23:12:36.164Z,99.90
2023-03-08T23:15:03.413Z,99.90
2023-03-08T23:17:31.612Z,99.90
2023-03-08T23:19:59.060Z,99.90
2023-03-08T23:22:25.934Z,99.90
2023-03-08T23:24:55.073Z,99.90
2023-03-08T23:27:21.799Z,99.90
2023-03-08T23:29:52.258Z,99.90
2023-03-08T23:32:18.979Z,99.90
2023-03-08T23:34:45.648Z,99.90
2023-03-08T23:37:14.558Z,99.90
2023-03-08T23:39:41.270Z,99.90
2023-03-08T23:42:08.023Z,99.90
2023-03-08T23:44:34.788Z,99.90
2023-03-08T23:47:01.542Z,99.90
2023-03-08T23:49:30.487Z,99.90
2023-03-08T23:51:57.211Z,99.90
2023-03-08T23:54:23.891Z,99.90
2023-03-08T23:56:50.544Z,99.90
2023-03-08T23:59:19.994Z,99.90
